Aérodrome :
LOGIN :

S'inscrire | Disclaimer

   EN    FR    IT 

 










Légende :    VFR   VFR Marginal   IFR   IFR Intensif   IFR Très Intensif
Visi : 
Plafond : 
>= 8 km
>= 3000ft
5 à 8 km
1000 à 3000 ft
1500m à 5 km
500 à 1000 ft
800 à 1500m
200 à 500 ft
< 800m
< 200 ft
Symboles :   Orages  Brouillard  Fortes neiges  Fortes précipitations  Vent > 20 kt
SIGMETs :   Divers  Orages  Givrage  Turbulence  Onde Orograph.  Cendres Volcan.







- Altitude de l'aérodrome : 779 ft
- Code IATA : CMF
- Voir les cartes d'approche


LFLB - Chambery / Aix-Les-Bains

DERNIER METAR :
  • 242030Z AUTO 03008KT 9999 BKN064 21/12 Q1018

METARs EXPIRÉS :
  • 242000Z AUTO VRB02KT 9999 -RA FEW066 18/12 Q1017
  • 241930Z AUTO 00000KT 9999 FEW068 19/12 Q1017
  • 241900Z AUTO VRB03KT CAVOK 21/12 Q1017 NOSIG
  • 241830Z AUTO 32003KT 270V350 9999 FEW062 22/12 Q1017 NOSIG
  • 241800Z AUTO 01008KT 9999 FEW060 23/10 Q1017 NOSIG

TAF TAF LFLB
Valide du 24 à 12h jusqu'au 25 à 12h UTC


241100Z 2412/2512 36010KT CAVOK
Pas de NOTAMs connus pour ce terrain.



MET'MAP, la Météo Aéronautique d'un coup d'oeil ! - Copyright ORBIFLY Décembre 2007 - Disclaimer

ORBIFLY MET'MAP TEAM :

Programmation & Développement : Alexandra Zaïnal
Conception & Développement : Baudouin d'Aumeries
Co-Programmation & Développement : Marc-Olivier Méhu
Soutien technique & logistique : Manuel Goepfert

Contact : metmap@orbifly.com




SOURCES & CREDITS :

   NOAA